Time;durP1;ratioP1;P1;durP2;ratioP2;P2;SDS_P1;SDS_P2;PMS_P1;PMS_P2;Temp;Humidity;BMP_temperature;BMP_pressure;BME280_temperature;BME280_humidity;BME280_pressure;Samples;Min_cycle;Max_cycle;Signal;HPM_P1;HPM_P2
2023/01/14 00:01:30;;;;;;;26.08;17.08;;;;;;;4.65;60.75;95242.22;5086840;28;20012;-70
2023/01/14 00:03:56;;;;;;;31.02;18.00;;;;;;;4.66;60.61;95235.59;5087650;28;20031;-69
2023/01/14 00:06:23;;;;;;;29.70;17.70;;;;;;;4.68;60.65;95238.69;5086685;28;20138;-70
2023/01/14 00:09:02;;;;;;;27.10;17.08;;;;;;;4.69;60.67;95245.69;5084150;28;20036;-70
2023/01/14 00:11:45;;;;;;;24.95;16.85;;;;;;;4.70;60.75;95239.88;5069290;28;20494;-70
2023/01/14 00:14:16;;;;;;;27.10;16.33;;;;;;;4.74;60.55;95245.31;5086736;28;20024;-70
2023/01/14 00:16:42;;;;;;;24.70;15.50;;;;;;;4.69;60.81;95234.81;5085718;28;20036;-68
2023/01/14 00:19:07;;;;;;;25.00;14.90;;;;;;;4.68;60.60;95231.31;5084319;28;20109;-70
2023/01/14 00:21:33;;;;;;;22.63;15.43;;;;;;;4.73;60.28;95235.59;5087956;28;20028;-71
2023/01/14 00:23:58;;;;;;;21.85;14.88;;;;;;;4.72;60.73;95231.31;5084996;28;20316;-70
2023/01/14 00:26:25;;;;;;;22.90;15.25;;;;;;;4.71;60.31;95224.31;5085438;28;20145;-69
2023/01/14 00:28:51;;;;;;;24.48;15.68;;;;;;;4.69;60.92;95226.63;5085470;28;20032;-69
2023/01/14 00:31:18;;;;;;;23.25;15.30;;;;;;;4.74;60.53;95218.06;5067579;28;20031;-69
2023/01/14 00:33:44;;;;;;;21.55;14.82;;;;;;;4.71;60.66;95225.09;5085919;28;20199;-69
2023/01/14 00:36:11;;;;;;;23.00;14.63;;;;;;;4.72;60.45;95234.03;5086448;28;20031;-69
2023/01/14 00:38:36;;;;;;;22.10;13.95;;;;;;;4.72;60.49;95234.03;5086727;28;20119;-69
2023/01/14 00:41:07;;;;;;;26.60;16.25;;;;;;;4.73;60.47;95227.41;5085040;28;20036;-69
2023/01/14 00:43:37;;;;;;;18.30;13.00;;;;;;;4.68;60.92;95225.09;5085626;28;20151;-69
2023/01/14 00:46:05;;;;;;;21.38;14.75;;;;;;;4.67;61.10;95228.97;5084064;28;20071;-70
2023/01/14 00:48:31;;;;;;;23.85;15.75;;;;;;;4.65;61.54;95225.88;5083947;28;20028;-69
2023/01/14 00:50:57;;;;;;;21.63;14.80;;;;;;;4.61;61.13;95223.16;5084911;28;20040;-69
2023/01/14 00:53:22;;;;;;;17.67;12.10;;;;;;;4.57;61.02;95214.19;5085879;28;20035;-70
2023/01/14 00:55:48;;;;;;;21.10;13.35;;;;;;;4.67;61.05;95224.31;5085993;28;20024;-69
2023/01/14 00:58:13;;;;;;;17.67;12.95;;;;;;;4.71;61.08;95237.94;5084396;28;20077;-68
2023/01/14 01:00:38;;;;;;;18.65;13.63;;;;;;;4.71;61.03;95232.47;5086266;28;20024;-70
2023/01/14 01:03:04;;;;;;;20.33;12.95;;;;;;;4.66;61.30;95230.94;5083508;28;20036;-69
2023/01/14 01:05:34;;;;;;;19.65;12.88;;;;;;;4.72;61.20;95226.63;5084589;28;20587;-68
2023/01/14 01:07:59;;;;;;;17.88;12.75;;;;;;;4.78;61.13;95241.41;5081778;28;20126;-70
2023/01/14 01:10:25;;;;;;;19.13;12.30;;;;;;;4.75;61.25;95225.84;5086198;28;20044;-69
2023/01/14 01:12:50;;;;;;;16.13;11.98;;;;;;;4.75;61.16;95225.84;5085513;28;20411;-68
2023/01/14 01:15:16;;;;;;;17.58;13.38;;;;;;;4.79;60.99;95232.06;5082615;28;20024;-68
2023/01/14 01:17:41;;;;;;;17.65;11.65;;;;;;;4.82;60.94;95224.28;5084451;28;20032;-70
2023/01/14 01:20:08;;;;;;;16.38;11.95;;;;;;;4.83;60.61;95226.63;5083337;28;20039;-68
2023/01/14 01:22:33;;;;;;;17.35;12.18;;;;;;;4.83;61.15;95223.91;5085833;28;20039;-70
2023/01/14 01:24:59;;;;;;;18.00;12.38;;;;;;;4.85;60.58;95218.03;5085376;28;20170;-70
2023/01/14 01:27:24;;;;;;;17.85;12.45;;;;;;;4.85;60.60;95227.00;5085365;28;20539;-72
2023/01/14 01:29:50;;;;;;;17.77;11.90;;;;;;;4.81;60.73;95218.03;5086197;28;20478;-69
2023/01/14 01:32:15;;;;;;;18.58;12.23;;;;;;;4.85;60.54;95207.94;5084931;28;20031;-69
2023/01/14 01:34:40;;;;;;;16.58;12.02;;;;;;;4.85;60.38;95210.66;5083368;28;20359;-70
2023/01/14 01:37:06;;;;;;;17.92;12.63;;;;;;;4.84;60.43;95203.66;5085002;28;20028;-70
2023/01/14 01:39:31;;;;;;;15.90;12.75;;;;;;;4.85;60.49;95199.75;5086184;28;20081;-70
2023/01/14 01:41:57;;;;;;;18.65;12.85;;;;;;;4.83;60.41;95201.34;5084145;28;20032;-71
2023/01/14 01:44:22;;;;;;;18.25;13.10;;;;;;;4.81;60.73;95201.69;5085214;28;20032;-70
2023/01/14 01:46:47;;;;;;;17.38;12.60;;;;;;;4.77;60.81;95203.69;5084161;28;20405;-69
2023/01/14 01:49:15;;;;;;;20.27;13.57;;;;;;;4.72;60.85;95198.63;5084768;28;20700;-69
2023/01/14 01:51:53;;;;;;;19.77;13.30;;;;;;;4.76;60.92;95202.13;5066886;28;20053;-69
2023/01/14 01:54:20;;;;;;;19.75;12.80;;;;;;;4.73;60.83;95192.78;5082734;28;20023;-70
2023/01/14 01:56:46;;;;;;;18.20;13.95;;;;;;;4.72;60.83;95196.69;5066035;28;20125;-70
2023/01/14 01:59:11;;;;;;;17.58;12.70;;;;;;;4.73;60.79;95206.41;5082988;28;20028;-71
2023/01/14 02:01:38;;;;;;;22.63;14.40;;;;;;;4.73;60.82;95197.44;5066097;28;20027;-69
2023/01/14 02:04:03;;;;;;;19.83;14.38;;;;;;;4.65;61.06;95196.69;5064313;28;20573;-70
2023/01/14 02:06:29;;;;;;;23.10;14.48;;;;;;;4.68;61.12;95195.13;5083269;28;20490;-70
2023/01/14 02:08:54;;;;;;;22.77;13.50;;;;;;;4.58;61.17;95190.47;5083082;28;20052;-71
2023/01/14 02:11:27;;;;;;;25.85;14.60;;;;;;;4.63;61.13;95193.56;5064346;28;20509;-69
2023/01/14 02:14:08;;;;;;;21.65;14.52;;;;;;;4.65;61.28;95196.69;5084878;28;20482;-69
2023/01/14 02:17:01;;;;;;;21.80;14.98;;;;;;;4.64;61.30;95200.56;5084074;28;20032;-70
2023/01/14 02:19:51;;;;;;;20.85;15.02;;;;;;;4.66;61.34;95205.66;5084813;28;20486;-69
2023/01/14 02:22:54;;;;;;;23.95;15.20;;;;;;;4.65;61.38;95193.97;5084854;28;20034;-70
2023/01/14 02:25:36;;;;;;;21.15;15.23;;;;;;;4.68;61.18;95195.91;5082816;28;20089;-70
2023/01/14 02:28:13;;;;;;;22.73;15.80;;;;;;;4.70;61.34;95195.50;5081781;28;20043;-70
2023/01/14 02:31:06;;;;;;;24.50;15.80;;;;;;;4.73;61.30;95189.28;5069527;28;20114;-69
2023/01/14 02:33:55;;;;;;;24.17;15.90;;;;;;;4.72;61.40;95188.50;5083582;28;20032;-68
2023/01/14 02:36:27;;;;;;;22.17;15.00;;;;;;;4.71;61.29;95191.63;5081729;28;20114;-70
2023/01/14 02:39:00;;;;;;;22.98;15.10;;;;;;;4.68;61.39;95190.44;5082476;28;20093;-70
2023/01/14 02:44:20;;;;;;;22.50;15.85;;;;;;;4.72;61.30;95193.94;5070015;28;20158;-69
2023/01/14 02:46:51;;;;;;;22.35;15.65;;;;;;;4.74;61.20;95190.81;5081599;28;20070;-70
2023/01/14 02:49:20;;;;;;;25.40;17.02;;;;;;;4.76;61.16;95200.19;5083845;28;20027;-68
2023/01/14 02:51:46;;;;;;;22.17;15.82;;;;;;;4.78;61.14;95188.88;5081597;28;20024;-69
2023/01/14 02:54:11;;;;;;;24.10;15.48;;;;;;;4.80;61.15;95200.16;5082160;28;20105;-69
2023/01/14 02:56:37;;;;;;;22.42;15.15;;;;;;;4.75;61.39;95192.38;5085296;28;20460;-69
2023/01/14 02:59:20;;;;;;;21.50;14.77;;;;;;;4.65;61.28;95188.53;5081119;28;20028;-69
2023/01/14 03:02:07;;;;;;;22.17;15.73;;;;;;;4.76;61.39;95197.47;5083782;28;20020;-69
2023/01/14 03:04:35;;;;;;;24.60;16.27;;;;;;;4.80;61.34;95195.47;5085234;28;20322;-69
2023/01/14 03:07:16;;;;;;;21.02;15.82;;;;;;;4.79;61.15;95199.38;5084141;28;20115;-68
2023/01/14 03:09:46;;;;;;;26.45;16.25;;;;;;;4.79;61.34;95204.06;5081338;28;20063;-69
2023/01/14 03:13:09;;;;;;;23.25;15.75;;;;;;;4.78;61.42;95199.78;5085220;28;20407;-70
2023/01/14 03:15:39;;;;;;;22.33;15.35;;;;;;;4.79;61.51;95201.31;5085966;28;20032;-69
2023/01/14 03:18:08;;;;;;;24.08;15.50;;;;;;;4.81;61.40;95198.97;5085299;28;20209;-69
2023/01/14 03:20:36;;;;;;;22.52;15.20;;;;;;;4.78;61.46;95194.34;5067658;28;20044;-69
2023/01/14 03:23:05;;;;;;;22.35;14.85;;;;;;;4.84;61.46;95189.25;5085324;28;20036;-69
2023/01/14 03:25:31;;;;;;;23.88;15.75;;;;;;;4.90;61.35;95188.47;5085173;28;20558;-70
2023/01/14 03:27:57;;;;;;;22.98;15.15;;;;;;;4.92;60.99;95186.09;5064609;28;20048;-69
2023/01/14 03:30:26;;;;;;;23.35;15.55;;;;;;;4.88;61.19;95192.75;5065340;28;20048;-69
2023/01/14 03:32:55;;;;;;;22.40;15.55;;;;;;;4.87;61.14;95189.22;5067219;28;20534;-70
2023/01/14 03:35:39;;;;;;;24.33;15.82;;;;;;;4.93;61.18;95184.16;5065283;28;20121;-69
2023/01/14 03:38:11;;;;;;;23.23;15.15;;;;;;;4.93;60.91;95181.44;5052630;28;20123;-70
2023/01/14 03:40:37;;;;;;;22.35;14.43;;;;;;;4.93;60.90;95186.88;5079571;28;20032;-70
2023/01/14 03:43:42;;;;;;;22.25;15.40;;;;;;;4.95;60.84;95181.84;5063645;28;20056;-69
2023/01/14 03:46:08;;;;;;;21.42;14.43;;;;;;;4.93;60.72;95184.16;4978792;28;20046;-70
2023/01/14 03:48:33;;;;;;;23.60;15.30;;;;;;;4.91;60.87;95179.09;4977469;28;20037;-69
2023/01/14 03:51:18;;;;;;;22.65;15.85;;;;;;;4.85;61.24;95182.63;4988318;28;20038;-69
2023/01/14 03:53:46;;;;;;;23.63;15.35;;;;;;;4.90;61.19;95176.78;4988508;28;20046;-70
2023/01/14 03:56:40;;;;;;;21.15;14.68;;;;;;;4.89;60.94;95180.69;5005272;28;20025;-70
2023/01/14 03:59:15;;;;;;;24.90;16.30;;;;;;;4.86;60.83;95187.69;5002533;28;20026;-68
2023/01/14 04:01:46;;;;;;;25.92;15.60;;;;;;;4.82;61.01;95175.25;4985115;28;20040;-69
2023/01/14 04:04:11;;;;;;;22.67;15.13;;;;;;;4.75;61.20;95171.38;5004133;28;20555;-70
2023/01/14 04:06:37;;;;;;;24.02;15.20;;;;;;;4.75;61.12;95174.09;5001078;28;20041;-70
2023/01/14 04:09:05;;;;;;;20.83;14.40;;;;;;;4.73;60.93;95171.00;4983978;28;20539;-69
2023/01/14 04:11:30;;;;;;;23.33;15.10;;;;;;;4.70;60.66;95165.53;4987363;28;20030;-70
2023/01/14 04:16:39;;;;;;;25.48;16.13;;;;;;;4.62;60.77;95178.41;4994144;28;20036;-69
2023/01/14 04:19:05;;;;;;;22.92;15.38;;;;;;;4.56;61.30;95171.03;5000594;28;20050;-68
2023/01/14 04:21:30;;;;;;;24.95;15.27;;;;;;;4.54;60.81;95166.00;5085312;28;20024;-70
2023/01/14 04:23:56;;;;;;;27.63;16.40;;;;;;;4.46;60.91;95164.44;5086026;28;20139;-69
2023/01/14 04:26:21;;;;;;;23.23;16.02;;;;;;;4.44;61.03;95166.78;5088335;28;20028;-70
2023/01/14 04:28:46;;;;;;;24.20;16.67;;;;;;;4.38;60.98;95165.63;5086109;28;20088;-70
2023/01/14 04:31:12;;;;;;;25.85;15.35;;;;;;;4.33;60.86;95168.72;5086935;28;20028;-70
2023/01/14 04:33:37;;;;;;;23.42;16.60;;;;;;;4.27;61.20;95165.63;5085049;28;20024;-70
2023/01/14 04:36:03;;;;;;;26.00;16.35;;;;;;;4.24;62.01;95169.13;5086643;28;20043;-71
2023/01/14 04:38:28;;;;;;;23.77;15.77;;;;;;;4.16;61.99;95167.59;5085148;28;20031;-70
2023/01/14 04:40:57;;;;;;;26.35;16.73;;;;;;;4.16;61.88;95168.34;5086924;28;20028;-69
2023/01/14 04:43:22;;;;;;;27.92;17.20;;;;;;;4.14;62.20;95164.47;5083327;28;20461;-72
2023/01/14 04:45:52;;;;;;;27.33;16.30;;;;;;;4.10;62.06;95164.47;5085991;28;20020;-69
2023/01/14 04:48:18;;;;;;;27.40;17.40;;;;;;;4.09;62.29;95171.09;5085971;28;20044;-69
2023/01/14 04:50:47;;;;;;;25.85;15.90;;;;;;;4.00;62.29;95163.31;5084189;28;20040;-70
2023/01/14 04:53:17;;;;;;;28.40;18.25;;;;;;;4.01;62.28;95169.50;5086116;28;20468;-68
2023/01/14 04:55:46;;;;;;;26.38;17.17;;;;;;;3.99;62.35;95163.69;5085346;28;20039;-69
2023/01/14 04:58:13;;;;;;;24.08;16.80;;;;;;;3.90;62.17;95172.25;5085524;28;20036;-70
2023/01/14 05:00:39;;;;;;;27.85;17.88;;;;;;;3.91;62.14;95178.47;5083826;28;20074;-68
2023/01/14 05:03:05;;;;;;;28.17;17.77;;;;;;;3.88;61.93;95179.22;5085563;28;20070;-69
2023/01/14 05:05:30;;;;;;;27.98;18.17;;;;;;;3.87;61.71;95175.75;5085653;28;20028;-69
2023/01/14 05:07:56;;;;;;;27.80;18.48;;;;;;;3.86;62.38;95182.34;5084288;28;20036;-69
2023/01/14 05:10:22;;;;;;;31.40;18.95;;;;;;;3.81;62.66;95176.50;5084237;28;20048;-69
2023/01/14 05:12:56;;;;;;;29.50;19.38;;;;;;;3.86;62.79;95173.41;5083033;28;20393;-69
2023/01/14 05:15:32;;;;;;;29.45;17.65;;;;;;;3.86;62.45;95171.47;5066459;28;20042;-69
2023/01/14 05:17:58;;;;;;;31.60;18.13;;;;;;;3.86;63.02;95171.47;5078566;28;20115;-69
2023/01/14 05:20:23;;;;;;;28.88;17.95;;;;;;;3.86;63.20;95174.19;5084501;28;20024;-70
2023/01/14 05:22:50;;;;;;;29.83;18.92;;;;;;;3.80;62.71;95167.59;5084299;28;20023;-70
2023/01/14 05:25:15;;;;;;;32.22;18.50;;;;;;;3.76;62.89;95176.91;5083098;28;20040;-68
2023/01/14 05:27:41;;;;;;;32.03;18.95;;;;;;;3.79;62.88;95181.56;5084451;28;20016;-69
2023/01/14 05:30:08;;;;;;;33.15;19.90;;;;;;;3.73;62.66;95176.50;5083016;28;20020;-69
2023/01/14 05:32:33;;;;;;;30.45;18.85;;;;;;;3.62;62.98;95183.88;5082807;28;20615;-69
2023/01/14 05:34:59;;;;;;;31.83;20.35;;;;;;;3.62;62.97;95178.44;5081818;28;20024;-69
2023/01/14 05:37:24;;;;;;;31.48;19.00;;;;;;;3.65;63.12;95185.03;5084082;28;20371;-69
2023/01/14 05:39:49;;;;;;;33.60;19.83;;;;;;;3.71;63.25;95178.06;5084430;28;20119;-70
2023/01/14 05:47:43;;;;;;;;;;;;;;;3.66;63.21;95189.31;5084814;28;20062;-70
2023/01/14 05:50:10;;;;;;;28.75;18.08;;;;;;;3.59;63.41;95183.84;5084700;28;20286;-70
2023/01/14 05:52:35;;;;;;;27.75;18.00;;;;;;;3.60;63.48;95190.84;5083485;28;20094;-70
2023/01/14 05:55:01;;;;;;;30.85;18.40;;;;;;;3.56;63.79;95188.13;5084648;28;20036;-70
2023/01/14 05:57:26;;;;;;;28.02;19.42;;;;;;;3.64;63.18;95188.91;5085155;28;20047;-71
2023/01/14 05:59:52;;;;;;;28.67;17.65;;;;;;;3.67;62.90;95197.09;5083807;28;20024;-69
2023/01/14 06:07:45;;;;;;;27.83;18.45;;;;;;;3.80;62.66;95200.22;5082752;28;20104;-68
2023/01/14 06:10:10;;;;;;;28.08;17.88;;;;;;;3.87;62.65;95202.16;5084101;28;20044;-69
2023/01/14 06:12:57;;;;;;;28.48;19.10;;;;;;;3.85;62.57;95191.69;5083899;28;20091;-70
2023/01/14 06:15:21;;;;;;;26.33;17.90;;;;;;;3.90;61.96;95190.50;5083938;28;20082;-70
2023/01/14 06:17:56;;;;;;;28.42;17.98;;;;;;;3.96;62.15;95191.69;5085611;28;20037;-69
2023/01/14 06:20:22;;;;;;;30.83;19.35;;;;;;;4.05;62.02;95192.06;5084875;28;20426;-70
2023/01/14 06:22:47;;;;;;;29.13;18.92;;;;;;;4.10;61.86;95190.91;5084631;28;20052;-70
2023/01/14 06:25:13;;;;;;;29.45;19.45;;;;;;;4.12;61.60;95194.78;5082760;28;20387;-70
2023/01/14 06:27:38;;;;;;;30.83;19.67;;;;;;;4.15;61.71;95187.81;5083038;28;20039;-68
2023/01/14 06:30:04;;;;;;;35.30;19.23;;;;;;;4.17;61.67;95197.13;5084541;28;20035;-70
2023/01/14 06:32:29;;;;;;;34.92;23.50;;;;;;;4.22;61.93;95199.44;5085056;28;20059;-70
2023/01/14 06:34:55;;;;;;;57.75;31.10;;;;;;;4.25;62.05;95200.63;5082084;28;20028;-69
2023/01/14 06:37:20;;;;;;;69.70;37.10;;;;;;;4.24;62.26;95202.59;5082792;28;20028;-70
2023/01/14 06:39:46;;;;;;;57.15;34.63;;;;;;;4.32;62.29;95197.13;5083566;28;20028;-68
2023/01/14 06:42:11;;;;;;;49.45;29.25;;;;;;;4.33;61.97;95206.84;5085109;28;20031;-69
2023/01/14 06:44:37;;;;;;;35.90;24.42;;;;;;;4.37;61.76;95197.50;5085115;28;20031;-69
2023/01/14 06:47:02;;;;;;;40.45;23.02;;;;;;;4.42;61.81;95204.50;5085437;28;20032;-70
2023/01/14 06:49:27;;;;;;;33.17;20.98;;;;;;;4.43;61.91;95204.13;5088668;28;20089;-70
2023/01/14 06:51:53;;;;;;;30.65;20.17;;;;;;;4.44;61.71;95204.88;5086588;28;20078;-69
2023/01/14 06:54:18;;;;;;;30.80;19.23;;;;;;;4.50;61.31;95201.38;5088276;28;20036;-70
2023/01/14 06:56:44;;;;;;;27.35;18.40;;;;;;;4.51;61.64;95197.47;5088435;28;20032;-69
2023/01/14 06:59:09;;;;;;;28.48;17.33;;;;;;;4.56;61.23;95203.72;5087506;28;20445;-69
2023/01/14 07:01:35;;;;;;;26.85;17.50;;;;;;;4.56;61.24;95203.72;5088698;28;20028;-69
2023/01/14 07:04:00;;;;;;;32.13;19.15;;;;;;;4.65;61.02;95198.66;5088743;28;20089;-68
2023/01/14 07:06:26;;;;;;;25.92;17.17;;;;;;;4.60;60.99;95205.25;5087686;28;20391;-68
2023/01/14 07:08:51;;;;;;;21.45;14.95;;;;;;;4.74;60.53;95218.06;5085624;28;20036;-69
2023/01/14 07:11:17;;;;;;;24.27;15.82;;;;;;;4.77;60.49;95212.63;5088210;28;20081;-70
2023/01/14 07:13:42;;;;;;;25.55;15.77;;;;;;;4.84;60.35;95217.28;5089167;28;20027;-70
2023/01/14 07:16:08;;;;;;;21.40;15.15;;;;;;;4.85;60.32;95207.94;5086823;28;20035;-69
2023/01/14 07:18:33;;;;;;;30.00;20.65;;;;;;;4.86;60.30;95203.25;5087691;28;20162;-68
2023/01/14 07:20:59;;;;;;;28.75;18.60;;;;;;;4.98;60.19;95217.22;5086857;28;20036;-69
2023/01/14 07:23:24;;;;;;;27.83;18.75;;;;;;;5.00;60.17;95225.81;5087366;28;20379;-69
2023/01/14 07:25:55;;;;;;;30.90;17.48;;;;;;;5.06;60.24;95226.19;5086674;28;20393;-69
2023/01/14 07:28:21;;;;;;;28.45;17.83;;;;;;;5.14;60.04;95219.53;5086574;28;20403;-69
2023/01/14 07:30:48;;;;;;;29.33;18.35;;;;;;;5.20;60.27;95228.06;5085440;28;20035;-69
2023/01/14 07:33:13;;;;;;;28.17;18.70;;;;;;;5.23;60.23;95225.34;5089169;28;20031;-69
2023/01/14 07:35:38;;;;;;;28.52;18.70;;;;;;;5.32;60.02;95225.69;5086359;28;20039;-69
2023/01/14 07:38:04;;;;;;;24.17;15.65;;;;;;;5.41;59.89;95230.72;5086616;28;20031;-70
2023/01/14 07:40:29;;;;;;;19.33;13.52;;;;;;;5.45;59.71;95228.75;5085475;28;20020;-70
2023/01/14 07:42:56;;;;;;;21.77;14.77;;;;;;;5.58;59.37;95227.13;5057570;28;20077;-70
2023/01/14 07:45:21;;;;;;;20.30;14.45;;;;;;;5.72;59.01;95228.22;5086168;28;20070;-70
2023/01/14 07:47:47;;;;;;;25.42;15.43;;;;;;;5.82;58.94;95228.16;5087435;28;20490;-69
2023/01/14 07:50:12;;;;;;;24.08;15.88;;;;;;;5.93;58.44;95239.03;5087254;28;20028;-69
2023/01/14 07:52:38;;;;;;;25.67;16.38;;;;;;;6.05;58.07;95227.66;5086407;28;20142;-68
2023/01/14 07:55:04;;;;;;;22.42;15.95;;;;;;;6.30;57.63;95237.63;5087449;28;20039;-70
2023/01/14 07:57:29;;;;;;;20.48;14.60;;;;;;;6.39;57.56;95240.69;5086132;28;20106;-69
2023/01/14 07:59:54;;;;;;;21.30;15.32;;;;;;;6.56;56.84;95234.28;5086390;28;20486;-68
2023/01/14 08:02:20;;;;;;;25.98;16.20;;;;;;;6.81;56.19;95236.03;5086894;28;20453;-69
2023/01/14 08:04:45;;;;;;;24.10;16.23;;;;;;;7.05;55.61;95242.41;5067774;28;20474;-70
2023/01/14 08:07:11;;;;;;;24.17;15.80;;;;;;;7.41;54.89;95240.84;5086976;28;20020;-69
2023/01/14 08:09:36;;;;;;;24.15;17.70;;;;;;;7.77;53.42;95240.41;5087689;28;20415;-69
2023/01/14 08:12:02;;;;;;;27.40;17.83;;;;;;;8.12;53.16;95238.38;5086389;28;20521;-70
2023/01/14 08:14:28;;;;;;;29.48;20.10;;;;;;;8.60;51.93;95242.75;5085434;28;20059;-69
2023/01/14 08:16:53;;;;;;;30.15;19.85;;;;;;;9.42;49.69;95249.53;5088087;28;20035;-68
2023/01/14 08:19:19;;;;;;;27.80;19.85;;;;;;;10.38;47.30;95255.78;5084732;28;20578;-68
2023/01/14 08:21:44;;;;;;;28.92;19.73;;;;;;;11.22;45.43;95254.09;5087305;28;20035;-69
2023/01/14 08:24:10;;;;;;;31.38;21.63;;;;;;;12.41;42.35;95266.88;5086360;28;20047;-70
2023/01/14 08:26:35;;;;;;;29.45;21.17;;;;;;;13.47;40.38;95258.31;5085211;28;20025;-70
2023/01/14 08:29:01;;;;;;;31.27;23.13;;;;;;;14.26;38.15;95253.47;5087551;28;20050;-69
2023/01/14 08:31:26;;;;;;;33.88;24.00;;;;;;;13.97;38.86;95257.31;5085330;28;20028;-69
2023/01/14 08:33:53;;;;;;;31.02;22.48;;;;;;;14.40;37.71;95264.00;5085490;28;20036;-68
2023/01/14 08:36:18;;;;;;;29.13;21.58;;;;;;;15.16;36.15;95268.13;5082957;28;20080;-70
2023/01/14 08:38:45;;;;;;;33.05;24.48;;;;;;;15.33;36.23;95269.38;5086151;28;20115;-69
2023/01/14 08:41:13;;;;;;;34.90;24.23;;;;;;;16.37;34.18;95271.19;5085646;28;20047;-70
2023/01/14 08:43:39;;;;;;;34.35;25.15;;;;;;;17.21;33.22;95273.16;5085979;28;20489;-69
2023/01/14 08:46:05;;;;;;;38.90;27.85;;;;;;;18.15;31.16;95274.78;5087258;28;20035;-69
2023/01/14 08:48:30;;;;;;;41.70;31.42;;;;;;;18.66;30.51;95277.19;5084997;28;20024;-70
2023/01/14 08:51:06;;;;;;;44.95;34.80;;;;;;;19.28;29.38;95278.91;5087209;28;20483;-70
2023/01/14 08:53:31;;;;;;;42.55;33.20;;;;;;;20.03;28.41;95280.09;5081665;28;20032;-69
2023/01/14 08:56:00;;;;;;;40.15;31.63;;;;;;;20.83;27.10;95282.38;5086008;28;20138;-70
2023/01/14 08:58:25;;;;;;;34.47;28.00;;;;;;;21.90;25.83;95287.31;5085587;28;20032;-70
2023/01/14 09:01:01;;;;;;;33.15;27.23;;;;;;;23.01;24.31;95274.06;5085249;28;20044;-69
2023/01/14 09:03:30;;;;;;;29.83;26.10;;;;;;;23.49;23.04;95276.50;5083437;28;20024;-70
2023/01/14 09:05:56;;;;;;;28.58;22.20;;;;;;;24.56;22.00;95273.25;5086454;28;20482;-69
2023/01/14 09:19:25;;;;;;;25.95;20.00;;;;;;;27.85;18.34;95260.25;5065043;28;20145;-69
2023/01/14 09:21:50;;;;;;;23.95;20.70;;;;;;;27.93;17.77;95252.63;5066541;28;20099;-69
2023/01/14 09:24:16;;;;;;;25.75;23.05;;;;;;;28.13;17.74;95254.78;5067300;28;20023;-70
2023/01/14 09:26:41;;;;;;;21.15;18.80;;;;;;;28.14;17.34;95252.72;5083589;28;20043;-69
2023/01/14 09:29:07;;;;;;;21.08;18.60;;;;;;;28.51;16.99;95254.50;5084174;28;20032;-69
2023/01/14 09:31:32;;;;;;;19.67;17.70;;;;;;;28.66;17.27;95249.00;5084342;28;20027;-69
2023/01/14 09:33:58;;;;;;;22.80;18.90;;;;;;;28.80;16.46;95244.81;5085524;28;20081;-70
2023/01/14 09:36:23;;;;;;;22.92;18.60;;;;;;;28.98;16.65;95245.19;5082445;28;20036;-70
2023/01/14 09:38:49;;;;;;;23.35;19.42;;;;;;;29.01;16.66;95244.81;5086050;28;20523;-68
2023/01/14 09:41:35;;;;;;;22.65;20.27;;;;;;;29.72;16.00;95241.97;5082404;28;20509;-70
2023/01/14 09:44:01;;;;;;;21.60;18.90;;;;;;;29.12;16.52;95238.13;5082830;28;20028;-70
2023/01/14 09:46:26;;;;;;;22.55;19.67;;;;;;;27.84;17.52;95230.50;5084218;28;20036;-70
2023/01/14 09:48:53;;;;;;;22.33;19.92;;;;;;;26.85;18.68;95224.06;5083778;28;20028;-70
2023/01/14 09:51:37;;;;;;;23.95;19.30;;;;;;;25.53;19.17;95230.47;5085854;28;20020;-69
2023/01/14 09:54:20;;;;;;;25.05;20.23;;;;;;;24.58;20.55;95226.47;5081774;28;20558;-69
2023/01/14 09:57:09;;;;;;;21.40;19.10;;;;;;;23.69;21.54;95215.78;5084756;28;20038;-70
2023/01/14 09:59:55;;;;;;;24.50;20.58;;;;;;;22.72;22.83;95219.28;5074987;28;20142;-70
2023/01/14 10:02:33;;;;;;;22.95;19.77;;;;;;;22.16;23.80;95219.25;5069845;28;20028;-70
2023/01/14 10:05:01;;;;;;;26.73;21.70;;;;;;;21.36;24.14;95225.81;5069355;28;20056;-69
2023/01/14 10:07:27;;;;;;;23.13;20.73;;;;;;;20.92;25.08;95227.06;5085928;28;20053;-69
2023/01/14 10:09:54;;;;;;;24.33;20.50;;;;;;;20.44;25.38;95215.78;5081686;28;20127;-71
2023/01/14 10:12:29;;;;;;;25.35;21.00;;;;;;;19.83;26.25;95215.94;5084087;28;20139;-70
2023/01/14 10:15:19;;;;;;;24.25;20.40;;;;;;;18.98;27.43;95205.78;5083755;28;20035;-71
2023/01/14 10:17:51;;;;;;;23.83;18.70;;;;;;;18.44;28.29;95212.78;5059741;28;20036;-69
2023/01/14 10:20:43;;;;;;;25.20;19.50;;;;;;;17.55;29.47;95201.59;5071212;28;20028;-69
2023/01/14 10:23:14;;;;;;;24.83;18.60;;;;;;;17.05;30.64;95197.81;5058112;28;20530;-69
2023/01/14 10:25:42;;;;;;;23.80;19.02;;;;;;;17.44;30.49;95199.38;5067929;28;20059;-69
2023/01/14 10:28:10;;;;;;;22.45;17.77;;;;;;;17.15;30.71;95191.72;5098419;28;20040;-69
2023/01/14 10:30:36;;;;;;;21.75;17.85;;;;;;;17.63;30.09;95197.19;5067599;28;20020;-68
2023/01/14 10:33:03;;;;;;;23.75;18.15;;;;;;;17.59;30.03;95204.19;5067315;28;20028;-69
2023/01/14 10:35:34;;;;;;;18.60;16.33;;;;;;;17.28;30.26;95196.25;5084102;28;20192;-69
2023/01/14 10:37:59;;;;;;;20.60;17.10;;;;;;;17.13;30.73;95187.88;5067919;28;20039;-70
2023/01/14 10:40:25;;;;;;;21.88;17.38;;;;;;;16.95;31.24;95183.97;5066451;28;20028;-69
2023/01/14 10:42:51;;;;;;;28.25;17.40;;;;;;;16.73;31.72;95189.03;5083139;28;20032;-70
2023/01/14 10:45:17;;;;;;;24.75;17.92;;;;;;;16.39;31.92;95188.25;5080942;28;20646;-69
2023/01/14 10:47:44;;;;;;;25.67;18.17;;;;;;;16.08;32.52;95194.06;5083140;28;20039;-69
2023/01/14 10:50:23;;;;;;;22.25;18.17;;;;;;;15.71;32.99;95185.03;5084609;28;20103;-68
2023/01/14 10:52:49;;;;;;;22.77;17.90;;;;;;;15.39;33.60;95175.38;5084064;28;20107;-70
2023/01/14 10:55:25;;;;;;;26.83;20.15;;;;;;;15.01;34.23;95175.81;5066266;28;20050;-69
2023/01/14 10:57:59;;;;;;;25.02;19.25;;;;;;;14.81;34.56;95173.50;5065922;28;20027;-70
2023/01/14 11:00:47;;;;;;;26.05;19.50;;;;;;;14.90;34.78;95172.72;5065822;28;20056;-68
2023/01/14 11:03:24;;;;;;;26.55;18.92;;;;;;;17.57;30.80;95174.09;5084061;28;20028;-70
2023/01/14 11:06:04;;;;;;;21.65;18.65;;;;;;;19.27;28.31;95170.69;5068836;28;20024;-70
2023/01/14 11:08:36;;;;;;;22.02;18.73;;;;;;;19.66;27.51;95162.00;5066378;28;20178;-75
2023/01/14 11:11:12;;;;;;;22.60;18.45;;;;;;;21.25;25.34;95164.22;5078219;28;20036;-71
2023/01/14 11:13:41;;;;;;;25.20;17.17;;;;;;;22.31;23.24;95166.56;5075776;28;20152;-68
2023/01/14 11:16:28;;;;;;;16.58;14.80;;;;;;;22.19;23.02;95163.00;5065102;28;20036;-70
2023/01/14 11:19:02;;;;;;;15.20;11.80;;;;;;;21.54;23.77;95174.28;5084123;28;20073;-69
2023/01/14 11:21:32;;;;;;;13.88;11.80;;;;;;;21.07;24.00;95161.88;5085029;28;20115;-70
2023/01/14 11:24:19;;;;;;;13.95;11.43;;;;;;;20.10;25.00;95162.44;5066729;28;20047;-69
2023/01/14 11:26:44;;;;;;;13.93;10.40;;;;;;;20.07;25.73;95157.06;5079295;28;20541;-70
2023/01/14 11:29:21;;;;;;;17.73;12.15;;;;;;;19.06;26.98;95162.31;5082067;28;20032;-68
2023/01/14 11:31:52;;;;;;;16.55;12.15;;;;;;;18.10;28.10;95167.72;5083608;28;20037;-70
2023/01/14 11:34:28;;;;;;;13.82;11.27;;;;;;;17.16;30.01;95165.47;5068324;28;20032;-68
2023/01/14 11:37:16;;;;;;;13.68;10.68;;;;;;;16.53;30.90;95163.84;5085894;28;20020;-69
2023/01/14 11:39:55;;;;;;;14.07;11.00;;;;;;;15.78;32.33;95161.81;5086034;28;20434;-69
2023/01/14 11:42:22;;;;;;;12.57;9.75;;;;;;;14.98;33.47;95160.91;5085575;28;20035;-70
2023/01/14 11:45:12;;;;;;;13.15;9.07;;;;;;;14.46;34.41;95156.31;5088063;28;20016;-70
2023/01/14 11:47:56;;;;;;;12.13;9.23;;;;;;;14.03;35.17;95155.22;5087482;28;20498;-69
2023/01/14 11:50:23;;;;;;;10.23;8.77;;;;;;;13.74;36.10;95163.84;5065148;28;20032;-70
2023/01/14 11:53:00;;;;;;;12.70;9.52;;;;;;;13.25;37.06;95161.69;5086301;28;20088;-71
2023/01/14 11:55:30;;;;;;;11.10;8.63;;;;;;;12.91;38.13;95162.44;5083960;28;20046;-69
2023/01/14 11:58:20;;;;;;;12.25;9.13;;;;;;;12.61;39.02;95163.84;5083371;28;20023;-69
2023/01/14 12:01:14;;;;;;;13.63;8.73;;;;;;;12.39;39.58;95163.78;5085687;28;20034;-69
2023/01/14 12:04:15;;;;;;;16.67;9.05;;;;;;;11.84;40.18;95166.66;5084530;28;20062;-69